Terminal Aerodrome Forecast
Issued by NWS

Home | Current Version | Previous Version | Text Only | Print | Product List | Glossary On
Versions: 1 2 3 4 5 6 7 8 9 10 11 12
000
FTUS45 KREV 281700
TAFMMH
TAF
KMMH 281720Z 2818/2918 12007KT P6SM SCT180
     FM282000 26010G16KT P6SM SCT100 SCT180
     FM282200 29012G18KT P6SM SCT100 SCT180
     FM290200 31008KT P6SM SCT180
     FM290500 VRB03KT P6SM FEW180=

USA.gov is the U.S. government's official web portal to all federal, state and local government web resources and services.